Etusivu
METAR-TAF:

METAR-TAF

Lentoasemat :

Hermosillo, Meksiko

Leveyspiiri: 29-04N, Pituuspiiri: 110-57W, korkeus merenpinnasta: 211 m

Tämänhetkinen sää

Tämä raportti tehtiin 5 tuntia ja 37 minuuttia sitten, kello 05.40 UTC
tyyntä
Lämpötila 10°C
Kosteus 34%
Ilmanpaine 1018 hPa
Näkyvyys: 16.1 km
Muutamia pilviä 20000 ft:n korkeudessa

METAR: MMHO 280540Z 00000KT 10SM FEW200 10/M05 A3007 RMK SLP187 52006 919 8/002

Aika: 04:17 (11:17 UTC)

Sääennuste

Tämä raportti tehtiin 6 tuntia ja 42 minuuttia sitten, kello 04.35 UTC
Ennuste voimassa 28. päivästä klo 06 UTC - 29. päivään klo 06 UTC
Tuuli kn pohjoisesta
Näkyvyys: 10 km
selkeää
From 28. päivästä klo 1800 UTC
Tuuli 10 kn lännestä
Näkyvyys: 10 km
selkeää
From 29. päivästä klo 0300 UTC
Tuuli 5 kn lännestä/lounaasta
Näkyvyys: 10 km
selkeää

TAF: MMHO 280435Z 2806/2906 00000KT P6SM SKC FM281800 26010KT P6SM SKC FM290300 24005KT P6SM SKC

Säähavainnot ja -ennusteet yli 4000 lentoasemalta (METAR- ja TAF-raportit).

Käytössä olevat sääasemat on merkitty karttaan keltaisilla ja punaisilla pisteillä.

Aseta hiiri pisteen päälle nähdäksesi sääaseman nimen.

Klikkaa sitten nähdäksesi säähavainnot ja -ennusteet.

Kartan vaihtaminen: klikkaa mustalla rastilla varustettuja vihreitä pisteitä, niin voit zoomata sisään; viivalla varustettua vihreää pistettä, niin voit zoomata ulos tai vihreitä nuolia, niin pääset viereisille kartoille.


METAR-TAF: